sensor_id;sensor_type;location;lat;lon;timestamp;P1;durP1;ratioP1;P2;durP2;ratioP2
22557;SDS011;11445;53.816;8.902;2023-02-11T00:01:17;32.95;;;11.02;;
22557;SDS011;11445;53.816;8.902;2023-02-11T00:03:46;33.75;;;11.70;;
22557;SDS011;11445;53.816;8.902;2023-02-11T00:06:13;30.80;;;10.52;;
22557;SDS011;11445;53.816;8.902;2023-02-11T00:08:42;29.05;;;10.57;;
22557;SDS011;11445;53.816;8.902;2023-02-11T00:11:11;43.53;;;10.02;;
22557;SDS011;11445;53.816;8.902;2023-02-11T00:13:39;28.45;;;11.13;;
22557;SDS011;11445;53.816;8.902;2023-02-11T00:16:07;26.77;;;9.88;;
22557;SDS011;11445;53.816;8.902;2023-02-11T00:18:36;35.40;;;11.52;;
22557;SDS011;11445;53.816;8.902;2023-02-11T00:21:05;33.17;;;10.18;;
22557;SDS011;11445;53.816;8.902;2023-02-11T00:23:33;32.65;;;10.65;;
22557;SDS011;11445;53.816;8.902;2023-02-11T00:26:01;35.38;;;12.07;;
22557;SDS011;11445;53.816;8.902;2023-02-11T00:28:29;36.20;;;11.13;;
22557;SDS011;11445;53.816;8.902;2023-02-11T00:30:56;40.78;;;11.65;;
22557;SDS011;11445;53.816;8.902;2023-02-11T00:33:25;35.80;;;11.88;;
22557;SDS011;11445;53.816;8.902;2023-02-11T00:35:52;38.17;;;12.48;;
22557;SDS011;11445;53.816;8.902;2023-02-11T00:38:19;30.65;;;10.05;;
22557;SDS011;11445;53.816;8.902;2023-02-11T00:40:46;35.05;;;12.55;;
22557;SDS011;11445;53.816;8.902;2023-02-11T00:43:15;32.20;;;13.00;;
22557;SDS011;11445;53.816;8.902;2023-02-11T00:45:42;36.33;;;13.70;;
22557;SDS011;11445;53.816;8.902;2023-02-11T00:48:09;52.78;;;13.30;;
22557;SDS011;11445;53.816;8.902;2023-02-11T00:50:36;41.72;;;13.23;;
22557;SDS011;11445;53.816;8.902;2023-02-11T00:53:03;38.13;;;12.55;;
22557;SDS011;11445;53.816;8.902;2023-02-11T00:55:30;38.45;;;13.57;;
22557;SDS011;11445;53.816;8.902;2023-02-11T00:57:57;34.05;;;12.27;;
22557;SDS011;11445;53.816;8.902;2023-02-11T01:00:25;45.97;;;13.07;;
22557;SDS011;11445;53.816;8.902;2023-02-11T01:02:53;37.13;;;12.25;;
22557;SDS011;11445;53.816;8.902;2023-02-11T01:05:20;45.70;;;13.75;;
22557;SDS011;11445;53.816;8.902;2023-02-11T01:07:47;33.97;;;13.65;;
22557;SDS011;11445;53.816;8.902;2023-02-11T01:10:14;49.42;;;13.82;;
22557;SDS011;11445;53.816;8.902;2023-02-11T01:12:41;40.42;;;13.90;;
22557;SDS011;11445;53.816;8.902;2023-02-11T01:15:10;37.40;;;13.90;;
22557;SDS011;11445;53.816;8.902;2023-02-11T01:17:41;45.20;;;13.50;;
22557;SDS011;11445;53.816;8.902;2023-02-11T01:20:11;33.20;;;13.45;;
22557;SDS011;11445;53.816;8.902;2023-02-11T01:22:40;40.17;;;13.15;;
22557;SDS011;11445;53.816;8.902;2023-02-11T01:25:07;35.88;;;12.43;;
22557;SDS011;11445;53.816;8.902;2023-02-11T01:27:35;39.53;;;12.80;;
22557;SDS011;11445;53.816;8.902;2023-02-11T01:30:03;38.33;;;11.90;;
22557;SDS011;11445;53.816;8.902;2023-02-11T01:32:31;30.88;;;12.63;;
22557;SDS011;11445;53.816;8.902;2023-02-11T01:34:59;39.28;;;12.45;;
22557;SDS011;11445;53.816;8.902;2023-02-11T01:37:26;29.77;;;12.57;;
22557;SDS011;11445;53.816;8.902;2023-02-11T01:39:53;37.25;;;12.10;;
22557;SDS011;11445;53.816;8.902;2023-02-11T01:42:21;31.27;;;12.25;;
22557;SDS011;11445;53.816;8.902;2023-02-11T01:44:49;31.88;;;12.15;;
22557;SDS011;11445;53.816;8.902;2023-02-11T01:47:17;38.30;;;12.02;;
22557;SDS011;11445;53.816;8.902;2023-02-11T01:49:46;33.50;;;12.18;;
22557;SDS011;11445;53.816;8.902;2023-02-11T01:52:20;30.13;;;11.75;;
22557;SDS011;11445;53.816;8.902;2023-02-11T01:54:50;30.52;;;12.07;;
22557;SDS011;11445;53.816;8.902;2023-02-11T01:57:37;40.30;;;13.43;;
22557;SDS011;11445;53.816;8.902;2023-02-11T02:00:09;39.08;;;12.77;;
22557;SDS011;11445;53.816;8.902;2023-02-11T02:02:41;36.58;;;13.27;;
22557;SDS011;11445;53.816;8.902;2023-02-11T02:05:18;34.85;;;11.68;;
22557;SDS011;11445;53.816;8.902;2023-02-11T02:07:53;38.72;;;12.63;;
22557;SDS011;11445;53.816;8.902;2023-02-11T02:10:26;36.10;;;11.88;;
22557;SDS011;11445;53.816;8.902;2023-02-11T02:12:54;33.95;;;11.23;;
22557;SDS011;11445;53.816;8.902;2023-02-11T02:15:25;36.75;;;12.18;;
22557;SDS011;11445;53.816;8.902;2023-02-11T02:18:07;41.53;;;12.23;;
22557;SDS011;11445;53.816;8.902;2023-02-11T02:33:03;44.38;;;11.80;;
22557;SDS011;11445;53.816;8.902;2023-02-11T02:35:41;42.95;;;11.48;;
22557;SDS011;11445;53.816;8.902;2023-02-11T02:38:15;35.40;;;11.98;;
22557;SDS011;11445;53.816;8.902;2023-02-11T02:40:47;39.63;;;12.50;;
22557;SDS011;11445;53.816;8.902;2023-02-11T02:43:17;36.22;;;12.10;;
22557;SDS011;11445;53.816;8.902;2023-02-11T02:45:46;37.90;;;12.80;;
22557;SDS011;11445;53.816;8.902;2023-02-11T02:48:28;49.05;;;12.85;;
22557;SDS011;11445;53.816;8.902;2023-02-11T02:51:03;41.88;;;11.75;;
22557;SDS011;11445;53.816;8.902;2023-02-11T02:53:43;36.08;;;11.82;;
22557;SDS011;11445;53.816;8.902;2023-02-11T02:56:21;51.03;;;13.75;;
22557;SDS011;11445;53.816;8.902;2023-02-11T02:59:03;43.65;;;12.18;;
22557;SDS011;11445;53.816;8.902;2023-02-11T03:01:41;39.67;;;12.57;;
22557;SDS011;11445;53.816;8.902;2023-02-11T03:04:21;40.10;;;12.55;;
22557;SDS011;11445;53.816;8.902;2023-02-11T03:06:52;42.78;;;11.80;;
22557;SDS011;11445;53.816;8.902;2023-02-11T03:09:27;37.70;;;11.40;;
22557;SDS011;11445;53.816;8.902;2023-02-11T03:11:59;39.75;;;11.68;;
22557;SDS011;11445;53.816;8.902;2023-02-11T03:14:27;44.60;;;13.07;;
22557;SDS011;11445;53.816;8.902;2023-02-11T03:16:56;51.35;;;12.48;;
22557;SDS011;11445;53.816;8.902;2023-02-11T03:19:27;35.42;;;11.18;;
22557;SDS011;11445;53.816;8.902;2023-02-11T03:21:56;40.78;;;13.05;;
22557;SDS011;11445;53.816;8.902;2023-02-11T03:24:25;47.83;;;12.77;;
22557;SDS011;11445;53.816;8.902;2023-02-11T03:26:56;39.90;;;13.55;;
22557;SDS011;11445;53.816;8.902;2023-02-11T03:29:30;45.40;;;12.43;;
22557;SDS011;11445;53.816;8.902;2023-02-11T03:32:01;47.60;;;11.98;;
22557;SDS011;11445;53.816;8.902;2023-02-11T03:34:36;41.63;;;11.45;;
22557;SDS011;11445;53.816;8.902;2023-02-11T03:37:08;40.33;;;12.02;;
22557;SDS011;11445;53.816;8.902;2023-02-11T03:39:40;46.67;;;12.50;;
22557;SDS011;11445;53.816;8.902;2023-02-11T03:42:13;51.05;;;12.95;;
22557;SDS011;11445;53.816;8.902;2023-02-11T03:44:42;42.03;;;13.38;;
22557;SDS011;11445;53.816;8.902;2023-02-11T03:47:17;44.15;;;15.13;;
22557;SDS011;11445;53.816;8.902;2023-02-11T03:49:49;37.63;;;12.48;;
22557;SDS011;11445;53.816;8.902;2023-02-11T03:52:18;46.97;;;13.10;;
22557;SDS011;11445;53.816;8.902;2023-02-11T03:54:48;45.67;;;13.18;;
22557;SDS011;11445;53.816;8.902;2023-02-11T03:57:19;36.90;;;12.82;;
22557;SDS011;11445;53.816;8.902;2023-02-11T03:59:50;37.72;;;12.98;;
22557;SDS011;11445;53.816;8.902;2023-02-11T04:02:18;45.15;;;12.43;;
22557;SDS011;11445;53.816;8.902;2023-02-11T04:04:47;46.60;;;12.85;;
22557;SDS011;11445;53.816;8.902;2023-02-11T04:07:15;45.72;;;13.65;;
22557;SDS011;11445;53.816;8.902;2023-02-11T04:09:43;42.15;;;14.13;;
22557;SDS011;11445;53.816;8.902;2023-02-11T04:12:10;39.92;;;13.27;;
22557;SDS011;11445;53.816;8.902;2023-02-11T04:14:37;50.63;;;14.82;;
22557;SDS011;11445;53.816;8.902;2023-02-11T04:17:04;45.58;;;13.02;;
22557;SDS011;11445;53.816;8.902;2023-02-11T04:19:31;45.58;;;13.25;;
22557;SDS011;11445;53.816;8.902;2023-02-11T04:21:58;44.30;;;13.75;;
22557;SDS011;11445;53.816;8.902;2023-02-11T04:24:26;44.45;;;13.60;;
22557;SDS011;11445;53.816;8.902;2023-02-11T04:26:54;48.40;;;14.07;;
22557;SDS011;11445;53.816;8.902;2023-02-11T04:29:21;43.15;;;13.57;;
22557;SDS011;11445;53.816;8.902;2023-02-11T04:31:48;47.22;;;13.98;;
22557;SDS011;11445;53.816;8.902;2023-02-11T04:34:15;40.28;;;13.45;;
22557;SDS011;11445;53.816;8.902;2023-02-11T04:36:42;51.40;;;14.18;;
22557;SDS011;11445;53.816;8.902;2023-02-11T04:39:10;64.88;;;14.93;;
22557;SDS011;11445;53.816;8.902;2023-02-11T04:41:38;42.13;;;14.25;;
22557;SDS011;11445;53.816;8.902;2023-02-11T04:44:05;55.15;;;14.38;;
22557;SDS011;11445;53.816;8.902;2023-02-11T04:46:32;55.97;;;15.65;;
22557;SDS011;11445;53.816;8.902;2023-02-11T04:48:59;50.22;;;13.73;;
22557;SDS011;11445;53.816;8.902;2023-02-11T04:51:26;43.17;;;14.15;;
22557;SDS011;11445;53.816;8.902;2023-02-11T04:53:53;58.42;;;15.48;;
22557;SDS011;11445;53.816;8.902;2023-02-11T04:56:20;40.25;;;12.90;;
22557;SDS011;11445;53.816;8.902;2023-02-11T04:58:49;53.95;;;13.68;;
22557;SDS011;11445;53.816;8.902;2023-02-11T05:01:16;53.60;;;14.15;;
22557;SDS011;11445;53.816;8.902;2023-02-11T05:03:43;49.13;;;14.50;;
22557;SDS011;11445;53.816;8.902;2023-02-11T05:06:10;42.88;;;13.05;;
22557;SDS011;11445;53.816;8.902;2023-02-11T05:08:38;52.60;;;14.15;;
22557;SDS011;11445;53.816;8.902;2023-02-11T05:11:05;50.28;;;14.02;;
22557;SDS011;11445;53.816;8.902;2023-02-11T05:13:33;44.97;;;14.55;;
22557;SDS011;11445;53.816;8.902;2023-02-11T05:16:02;42.17;;;13.35;;
22557;SDS011;11445;53.816;8.902;2023-02-11T05:18:30;48.05;;;13.75;;
22557;SDS011;11445;53.816;8.902;2023-02-11T05:20:57;58.22;;;13.88;;
22557;SDS011;11445;53.816;8.902;2023-02-11T05:23:24;63.20;;;14.48;;
22557;SDS011;11445;53.816;8.902;2023-02-11T05:25:51;45.72;;;13.70;;
22557;SDS011;11445;53.816;8.902;2023-02-11T05:28:18;54.95;;;14.02;;
22557;SDS011;11445;53.816;8.902;2023-02-11T05:30:45;41.80;;;13.02;;
22557;SDS011;11445;53.816;8.902;2023-02-11T05:33:13;54.85;;;13.93;;
22557;SDS011;11445;53.816;8.902;2023-02-11T05:35:40;51.05;;;14.20;;
22557;SDS011;11445;53.816;8.902;2023-02-11T05:38:08;51.35;;;15.43;;
22557;SDS011;11445;53.816;8.902;2023-02-11T05:40:35;37.58;;;13.40;;
22557;SDS011;11445;53.816;8.902;2023-02-11T05:43:02;44.35;;;13.38;;
22557;SDS011;11445;53.816;8.902;2023-02-11T05:45:29;53.13;;;13.07;;
22557;SDS011;11445;53.816;8.902;2023-02-11T05:47:56;54.35;;;13.15;;
22557;SDS011;11445;53.816;8.902;2023-02-11T05:50:25;49.53;;;12.82;;
22557;SDS011;11445;53.816;8.902;2023-02-11T05:52:52;56.25;;;14.13;;
22557;SDS011;11445;53.816;8.902;2023-02-11T05:55:19;51.55;;;13.60;;
22557;SDS011;11445;53.816;8.902;2023-02-11T05:57:46;43.92;;;12.35;;
22557;SDS011;11445;53.816;8.902;2023-02-11T06:00:14;47.90;;;12.63;;
22557;SDS011;11445;53.816;8.902;2023-02-11T06:02:41;47.67;;;13.68;;
22557;SDS011;11445;53.816;8.902;2023-02-11T06:05:08;49.63;;;13.93;;
22557;SDS011;11445;53.816;8.902;2023-02-11T06:07:37;46.00;;;13.95;;
22557;SDS011;11445;53.816;8.902;2023-02-11T06:10:04;44.65;;;13.10;;
22557;SDS011;11445;53.816;8.902;2023-02-11T06:12:32;35.83;;;13.60;;
22557;SDS011;11445;53.816;8.902;2023-02-11T06:14:59;39.58;;;12.43;;
22557;SDS011;11445;53.816;8.902;2023-02-11T06:17:26;47.58;;;12.95;;
22557;SDS011;11445;53.816;8.902;2023-02-11T06:19:55;44.15;;;15.02;;
22557;SDS011;11445;53.816;8.902;2023-02-11T06:22:22;40.08;;;12.88;;
22557;SDS011;11445;53.816;8.902;2023-02-11T06:24:51;56.85;;;13.65;;
22557;SDS011;11445;53.816;8.902;2023-02-11T06:27:18;61.40;;;14.80;;
22557;SDS011;11445;53.816;8.902;2023-02-11T06:29:46;43.63;;;13.75;;
22557;SDS011;11445;53.816;8.902;2023-02-11T06:32:13;50.45;;;13.98;;
22557;SDS011;11445;53.816;8.902;2023-02-11T06:34:41;37.47;;;13.85;;
22557;SDS011;11445;53.816;8.902;2023-02-11T06:37:08;39.17;;;13.90;;
22557;SDS011;11445;53.816;8.902;2023-02-11T06:39:35;45.40;;;12.70;;
22557;SDS011;11445;53.816;8.902;2023-02-11T06:42:04;51.72;;;13.82;;
22557;SDS011;11445;53.816;8.902;2023-02-11T06:44:31;41.78;;;13.00;;
22557;SDS011;11445;53.816;8.902;2023-02-11T06:46:58;48.33;;;13.00;;
22557;SDS011;11445;53.816;8.902;2023-02-11T06:49:25;52.28;;;14.63;;
22557;SDS011;11445;53.816;8.902;2023-02-11T06:51:53;39.97;;;13.25;;
22557;SDS011;11445;53.816;8.902;2023-02-11T06:54:20;52.70;;;13.32;;
22557;SDS011;11445;53.816;8.902;2023-02-11T06:56:47;48.95;;;14.02;;
22557;SDS011;11445;53.816;8.902;2023-02-11T06:59:15;49.97;;;14.32;;
22557;SDS011;11445;53.816;8.902;2023-02-11T07:01:44;49.75;;;14.88;;
22557;SDS011;11445;53.816;8.902;2023-02-11T07:04:11;48.40;;;14.13;;
22557;SDS011;11445;53.816;8.902;2023-02-11T07:06:39;48.35;;;14.23;;
22557;SDS011;11445;53.816;8.902;2023-02-11T07:09:06;56.17;;;14.20;;
22557;SDS011;11445;53.816;8.902;2023-02-11T07:11:34;47.38;;;14.73;;
22557;SDS011;11445;53.816;8.902;2023-02-11T07:14:01;46.53;;;14.57;;
22557;SDS011;11445;53.816;8.902;2023-02-11T07:16:33;50.45;;;14.90;;
22557;SDS011;11445;53.816;8.902;2023-02-11T07:19:01;44.72;;;14.02;;
22557;SDS011;11445;53.816;8.902;2023-02-11T07:21:28;58.35;;;13.65;;
22557;SDS011;11445;53.816;8.902;2023-02-11T07:23:55;44.85;;;13.23;;
22557;SDS011;11445;53.816;8.902;2023-02-11T07:26:22;54.20;;;14.50;;
22557;SDS011;11445;53.816;8.902;2023-02-11T07:28:51;45.40;;;12.80;;
22557;SDS011;11445;53.816;8.902;2023-02-11T07:31:19;41.95;;;13.15;;
22557;SDS011;11445;53.816;8.902;2023-02-11T07:33:50;39.15;;;12.13;;
22557;SDS011;11445;53.816;8.902;2023-02-11T07:36:18;57.15;;;13.43;;
22557;SDS011;11445;53.816;8.902;2023-02-11T07:38:45;55.05;;;13.65;;
22557;SDS011;11445;53.816;8.902;2023-02-11T07:41:13;48.35;;;13.10;;
22557;SDS011;11445;53.816;8.902;2023-02-11T07:43:42;61.83;;;14.25;;
22557;SDS011;11445;53.816;8.902;2023-02-11T07:46:10;38.70;;;11.77;;
22557;SDS011;11445;53.816;8.902;2023-02-11T07:48:38;40.03;;;11.95;;
22557;SDS011;11445;53.816;8.902;2023-02-11T07:51:08;54.42;;;13.43;;
22557;SDS011;11445;53.816;8.902;2023-02-11T07:53:37;47.50;;;12.52;;
22557;SDS011;11445;53.816;8.902;2023-02-11T07:56:05;45.08;;;12.80;;
22557;SDS011;11445;53.816;8.902;2023-02-11T07:58:33;55.20;;;13.18;;
22557;SDS011;11445;53.816;8.902;2023-02-11T08:01:00;49.80;;;12.35;;
22557;SDS011;11445;53.816;8.902;2023-02-11T08:03:28;46.80;;;11.68;;
22557;SDS011;11445;53.816;8.902;2023-02-11T08:05:55;54.90;;;12.70;;
22557;SDS011;11445;53.816;8.902;2023-02-11T08:08:25;51.15;;;11.85;;
22557;SDS011;11445;53.816;8.902;2023-02-11T08:10:53;55.33;;;12.13;;
22557;SDS011;11445;53.816;8.902;2023-02-11T08:13:20;54.10;;;12.13;;
22557;SDS011;11445;53.816;8.902;2023-02-11T08:15:47;46.33;;;10.70;;
22557;SDS011;11445;53.816;8.902;2023-02-11T08:18:14;48.35;;;12.63;;
22557;SDS011;11445;53.816;8.902;2023-02-11T08:20:41;47.88;;;10.82;;
22557;SDS011;11445;53.816;8.902;2023-02-11T08:23:09;48.22;;;10.07;;
22557;SDS011;11445;53.816;8.902;2023-02-11T08:25:37;38.40;;;9.45;;
22557;SDS011;11445;53.816;8.902;2023-02-11T08:28:04;53.05;;;10.23;;
22557;SDS011;11445;53.816;8.902;2023-02-11T08:30:33;40.35;;;8.65;;
22557;SDS011;11445;53.816;8.902;2023-02-11T08:33:00;47.72;;;8.15;;
22557;SDS011;11445;53.816;8.902;2023-02-11T08:35:27;40.35;;;9.02;;
22557;SDS011;11445;53.816;8.902;2023-02-11T08:37:54;43.50;;;7.95;;
22557;SDS011;11445;53.816;8.902;2023-02-11T08:40:21;48.45;;;9.40;;
22557;SDS011;11445;53.816;8.902;2023-02-11T08:42:50;37.83;;;7.57;;
22557;SDS011;11445;53.816;8.902;2023-02-11T08:45:17;47.97;;;8.55;;
22557;SDS011;11445;53.816;8.902;2023-02-11T08:47:45;36.88;;;8.13;;
22557;SDS011;11445;53.816;8.902;2023-02-11T08:50:12;41.38;;;7.07;;
22557;SDS011;11445;53.816;8.902;2023-02-11T08:52:39;40.20;;;7.32;;
22557;SDS011;11445;53.816;8.902;2023-02-11T08:55:07;37.58;;;6.78;;
22557;SDS011;11445;53.816;8.902;2023-02-11T08:57:34;31.35;;;6.95;;
22557;SDS011;11445;53.816;8.902;2023-02-11T09:00:03;34.88;;;7.30;;
22557;SDS011;11445;53.816;8.902;2023-02-11T09:02:30;38.67;;;7.82;;
22557;SDS011;11445;53.816;8.902;2023-02-11T09:04:58;32.05;;;6.00;;
22557;SDS011;11445;53.816;8.902;2023-02-11T09:07:25;30.10;;;6.78;;
22557;SDS011;11445;53.816;8.902;2023-02-11T09:09:53;43.78;;;7.05;;
22557;SDS011;11445;53.816;8.902;2023-02-11T09:12:20;42.30;;;6.97;;
22557;SDS011;11445;53.816;8.902;2023-02-11T09:14:47;44.78;;;6.30;;
22557;SDS011;11445;53.816;8.902;2023-02-11T09:17:15;49.50;;;8.02;;
22557;SDS011;11445;53.816;8.902;2023-02-11T09:19:42;41.78;;;6.28;;
22557;SDS011;11445;53.816;8.902;2023-02-11T09:22:09;33.80;;;6.00;;
22557;SDS011;11445;53.816;8.902;2023-02-11T09:24:36;46.53;;;7.53;;
22557;SDS011;11445;53.816;8.902;2023-02-11T09:27:04;38.35;;;6.15;;
22557;SDS011;11445;53.816;8.902;2023-02-11T09:29:31;39.92;;;6.28;;
22557;SDS011;11445;53.816;8.902;2023-02-11T09:31:58;35.53;;;6.53;;
22557;SDS011;11445;53.816;8.902;2023-02-11T09:34:27;35.10;;;6.32;;
22557;SDS011;11445;53.816;8.902;2023-02-11T09:36:54;36.03;;;5.30;;
22557;SDS011;11445;53.816;8.902;2023-02-11T09:39:21;35.60;;;6.45;;
22557;SDS011;11445;53.816;8.902;2023-02-11T09:41:56;47.88;;;5.93;;
22557;SDS011;11445;53.816;8.902;2023-02-11T09:44:34;41.83;;;6.47;;
22557;SDS011;11445;53.816;8.902;2023-02-11T09:47:03;43.92;;;5.50;;
22557;SDS011;11445;53.816;8.902;2023-02-11T09:49:37;44.03;;;6.30;;
22557;SDS011;11445;53.816;8.902;2023-02-11T09:52:07;31.60;;;6.25;;
22557;SDS011;11445;53.816;8.902;2023-02-11T09:54:44;44.65;;;6.32;;
22557;SDS011;11445;53.816;8.902;2023-02-11T09:57:19;37.03;;;6.85;;
22557;SDS011;11445;53.816;8.902;2023-02-11T09:59:46;34.47;;;5.78;;
22557;SDS011;11445;53.816;8.902;2023-02-11T10:02:16;49.88;;;6.28;;
22557;SDS011;11445;53.816;8.902;2023-02-11T10:05:01;42.75;;;5.60;;
22557;SDS011;11445;53.816;8.902;2023-02-11T10:07:42;50.08;;;6.82;;
22557;SDS011;11445;53.816;8.902;2023-02-11T10:10:19;39.47;;;5.72;;
22557;SDS011;11445;53.816;8.902;2023-02-11T10:12:58;48.25;;;6.40;;
22557;SDS011;11445;53.816;8.902;2023-02-11T10:15:38;42.78;;;6.60;;
22557;SDS011;11445;53.816;8.902;2023-02-11T10:18:23;47.88;;;5.90;;
22557;SDS011;11445;53.816;8.902;2023-02-11T10:21:07;43.63;;;5.65;;
22557;SDS011;11445;53.816;8.902;2023-02-11T10:23:45;58.42;;;6.95;;
22557;SDS011;11445;53.816;8.902;2023-02-11T10:26:16;37.22;;;6.25;;
22557;SDS011;11445;53.816;8.902;2023-02-11T10:28:45;45.85;;;6.43;;
22557;SDS011;11445;53.816;8.902;2023-02-11T10:31:15;36.95;;;6.03;;
22557;SDS011;11445;53.816;8.902;2023-02-11T10:33:46;43.30;;;5.78;;
22557;SDS011;11445;53.816;8.902;2023-02-11T10:36:20;44.90;;;5.65;;
22557;SDS011;11445;53.816;8.902;2023-02-11T10:38:50;44.47;;;5.63;;
22557;SDS011;11445;53.816;8.902;2023-02-11T10:41:19;40.88;;;5.40;;
22557;SDS011;11445;53.816;8.902;2023-02-11T10:43:49;37.40;;;5.70;;
22557;SDS011;11445;53.816;8.902;2023-02-11T10:46:17;46.83;;;5.43;;
22557;SDS011;11445;53.816;8.902;2023-02-11T10:48:48;35.20;;;5.22;;
22557;SDS011;11445;53.816;8.902;2023-02-11T10:51:18;34.60;;;5.78;;
22557;SDS011;11445;53.816;8.902;2023-02-11T10:53:48;32.95;;;5.60;;
22557;SDS011;11445;53.816;8.902;2023-02-11T10:56:20;42.90;;;5.20;;
22557;SDS011;11445;53.816;8.902;2023-02-11T10:58:54;41.70;;;5.82;;
22557;SDS011;11445;53.816;8.902;2023-02-11T11:01:36;42.53;;;5.88;;
22557;SDS011;11445;53.816;8.902;2023-02-11T11:04:31;38.30;;;5.32;;
22557;SDS011;11445;53.816;8.902;2023-02-11T11:07:11;40.53;;;6.95;;
22557;SDS011;11445;53.816;8.902;2023-02-11T11:09:44;45.55;;;6.30;;
22557;SDS011;11445;53.816;8.902;2023-02-11T11:12:24;43.15;;;5.72;;
22557;SDS011;11445;53.816;8.902;2023-02-11T11:14:54;49.35;;;6.43;;
22557;SDS011;11445;53.816;8.902;2023-02-11T11:17:22;43.42;;;5.30;;
22557;SDS011;11445;53.816;8.902;2023-02-11T11:19:53;39.70;;;5.40;;
22557;SDS011;11445;53.816;8.902;2023-02-11T11:22:40;42.40;;;6.13;;
22557;SDS011;11445;53.816;8.902;2023-02-11T11:25:19;38.72;;;6.25;;
22557;SDS011;11445;53.816;8.902;2023-02-11T11:27:48;43.28;;;5.45;;
22557;SDS011;11445;53.816;8.902;2023-02-11T11:30:16;30.52;;;5.85;;
22557;SDS011;11445;53.816;8.902;2023-02-11T11:32:44;38.90;;;6.50;;
22557;SDS011;11445;53.816;8.902;2023-02-11T11:35:19;39.30;;;5.43;;
22557;SDS011;11445;53.816;8.902;2023-02-11T11:37:53;40.55;;;5.13;;
22557;SDS011;11445;53.816;8.902;2023-02-11T11:40:24;32.33;;;5.03;;
22557;SDS011;11445;53.816;8.902;2023-02-11T11:43:05;41.13;;;5.43;;
22557;SDS011;11445;53.816;8.902;2023-02-11T11:45:52;46.65;;;5.53;;
22557;SDS011;11445;53.816;8.902;2023-02-11T11:48:21;42.08;;;5.93;;
22557;SDS011;11445;53.816;8.902;2023-02-11T11:50:52;44.42;;;5.82;;
22557;SDS011;11445;53.816;8.902;2023-02-11T11:53:24;47.08;;;6.15;;
22557;SDS011;11445;53.816;8.902;2023-02-11T11:56:02;49.97;;;6.63;;
22557;SDS011;11445;53.816;8.902;2023-02-11T11:58:31;34.92;;;5.53;;
22557;SDS011;11445;53.816;8.902;2023-02-11T12:01:01;56.15;;;6.00;;
22557;SDS011;11445;53.816;8.902;2023-02-11T12:03:57;46.65;;;6.53;;
22557;SDS011;11445;53.816;8.902;2023-02-11T12:06:38;44.60;;;7.03;;
22557;SDS011;11445;53.816;8.902;2023-02-11T12:09:14;50.03;;;7.32;;
22557;SDS011;11445;53.816;8.902;2023-02-11T12:11:56;42.90;;;5.50;;
22557;SDS011;11445;53.816;8.902;2023-02-11T12:14:41;40.10;;;6.43;;
22557;SDS011;11445;53.816;8.902;2023-02-11T12:17:14;51.05;;;9.52;;
22557;SDS011;11445;53.816;8.902;2023-02-11T12:22:40;48.85;;;7.82;;
22557;SDS011;11445;53.816;8.902;2023-02-11T12:25:21;50.03;;;9.65;;
22557;SDS011;11445;53.816;8.902;2023-02-11T12:27:55;41.28;;;7.80;;
22557;SDS011;11445;53.816;8.902;2023-02-11T12:30:48;51.42;;;9.10;;
22557;SDS011;11445;53.816;8.902;2023-02-11T12:33:26;58.92;;;6.68;;
22557;SDS011;11445;53.816;8.902;2023-02-11T12:36:04;38.42;;;5.95;;
22557;SDS011;11445;53.816;8.902;2023-02-11T12:38:48;47.05;;;6.35;;
22557;SDS011;11445;53.816;8.902;2023-02-11T12:41:33;54.13;;;5.00;;
22557;SDS011;11445;53.816;8.902;2023-02-11T12:44:30;37.20;;;5.13;;
22557;SDS011;11445;53.816;8.902;2023-02-11T12:47:08;42.75;;;6.18;;
22557;SDS011;11445;53.816;8.902;2023-02-11T12:49:49;42.20;;;5.80;;
22557;SDS011;11445;53.816;8.902;2023-02-11T12:55:18;36.75;;;5.68;;
22557;SDS011;11445;53.816;8.902;2023-02-11T12:57:51;37.17;;;5.47;;
22557;SDS011;11445;53.816;8.902;2023-02-11T13:00:22;41.47;;;6.07;;
22557;SDS011;11445;53.816;8.902;2023-02-11T13:02:53;35.60;;;4.78;;
22557;SDS011;11445;53.816;8.902;2023-02-11T13:05:26;41.25;;;5.78;;
22557;SDS011;11445;53.816;8.902;2023-02-11T13:07:58;42.85;;;6.07;;
22557;SDS011;11445;53.816;8.902;2023-02-11T13:10:30;46.10;;;5.05;;
22557;SDS011;11445;53.816;8.902;2023-02-11T13:13:01;38.90;;;5.95;;
22557;SDS011;11445;53.816;8.902;2023-02-11T13:15:41;35.60;;;5.65;;
22557;SDS011;11445;53.816;8.902;2023-02-11T13:18:23;30.67;;;5.47;;
22557;SDS011;11445;53.816;8.902;2023-02-11T13:21:06;38.85;;;5.85;;
22557;SDS011;11445;53.816;8.902;2023-02-11T13:23:45;42.22;;;5.95;;
22557;SDS011;11445;53.816;8.902;2023-02-11T13:26:22;30.83;;;6.15;;
22557;SDS011;11445;53.816;8.902;2023-02-11T13:28:55;47.83;;;5.80;;
22557;SDS011;11445;53.816;8.902;2023-02-11T13:31:31;40.60;;;5.07;;
22557;SDS011;11445;53.816;8.902;2023-02-11T13:33:58;32.53;;;5.38;;
22557;SDS011;11445;53.816;8.902;2023-02-11T13:36:28;28.33;;;5.10;;
22557;SDS011;11445;53.816;8.902;2023-02-11T13:39:02;39.53;;;6.95;;
22557;SDS011;11445;53.816;8.902;2023-02-11T13:41:33;47.53;;;6.53;;
22557;SDS011;11445;53.816;8.902;2023-02-11T13:44:15;41.55;;;6.50;;
22557;SDS011;11445;53.816;8.902;2023-02-11T13:46:51;45.40;;;6.10;;
22557;SDS011;11445;53.816;8.902;2023-02-11T13:49:23;37.75;;;6.25;;
22557;SDS011;11445;53.816;8.902;2023-02-11T13:51:53;37.80;;;5.40;;
22557;SDS011;11445;53.816;8.902;2023-02-11T13:54:22;41.03;;;6.63;;
22557;SDS011;11445;53.816;8.902;2023-02-11T14:02:27;46.70;;;6.13;;
22557;SDS011;11445;53.816;8.902;2023-02-11T14:05:28;44.60;;;5.03;;
22557;SDS011;11445;53.816;8.902;2023-02-11T14:08:23;33.38;;;5.50;;
22557;SDS011;11445;53.816;8.902;2023-02-11T14:11:09;41.83;;;6.20;;
22557;SDS011;11445;53.816;8.902;2023-02-11T14:19:49;51.33;;;5.78;;
22557;SDS011;11445;53.816;8.902;2023-02-11T14:22:18;38.30;;;5.00;;
22557;SDS011;11445;53.816;8.902;2023-02-11T14:24:53;42.60;;;5.22;;
22557;SDS011;11445;53.816;8.902;2023-02-11T14:27:33;34.38;;;5.28;;
22557;SDS011;11445;53.816;8.902;2023-02-11T14:36:06;36.95;;;4.25;;
22557;SDS011;11445;53.816;8.902;2023-02-11T14:38:47;38.65;;;5.13;;
22557;SDS011;11445;53.816;8.902;2023-02-11T14:41:25;39.15;;;5.65;;
22557;SDS011;11445;53.816;8.902;2023-02-11T14:43:55;39.58;;;6.10;;
22557;SDS011;11445;53.816;8.902;2023-02-11T14:46:25;48.38;;;6.32;;
22557;SDS011;11445;53.816;8.902;2023-02-11T14:48:55;43.55;;;7.82;;
22557;SDS011;11445;53.816;8.902;2023-02-11T14:51:27;37.83;;;5.35;;
22557;SDS011;11445;53.816;8.902;2023-02-11T14:53:57;48.08;;;6.57;;
22557;SDS011;11445;53.816;8.902;2023-02-11T14:56:29;56.60;;;6.05;;
22557;SDS011;11445;53.816;8.902;2023-02-11T14:58:58;40.08;;;6.50;;
22557;SDS011;11445;53.816;8.902;2023-02-11T15:01:28;66.15;;;7.80;;
22557;SDS011;11445;53.816;8.902;2023-02-11T15:03:59;42.03;;;5.95;;
22557;SDS011;11445;53.816;8.902;2023-02-11T15:06:29;48.63;;;5.38;;
22557;SDS011;11445;53.816;8.902;2023-02-11T15:08:58;50.10;;;6.50;;
22557;SDS011;11445;53.816;8.902;2023-02-11T15:11:28;50.38;;;7.35;;
22557;SDS011;11445;53.816;8.902;2023-02-11T15:14:04;44.53;;;6.35;;
22557;SDS011;11445;53.816;8.902;2023-02-11T15:16:33;45.17;;;5.90;;
22557;SDS011;11445;53.816;8.902;2023-02-11T15:21:42;42.75;;;5.95;;
22557;SDS011;11445;53.816;8.902;2023-02-11T15:24:20;42.58;;;5.93;;
22557;SDS011;11445;53.816;8.902;2023-02-11T15:26:56;47.72;;;5.53;;
22557;SDS011;11445;53.816;8.902;2023-02-11T15:29:24;54.13;;;7.03;;